sensor_id;sensor_type;location;lat;lon;timestamp;pressure;altitude;pressure_sealevel;temperature;humidity
72409;BME280;60402;48.082;11.628;2022-12-18T00:02:05;96275.28;;;-5.83;100.00
72409;BME280;60402;48.082;11.628;2022-12-18T00:04:30;96357.03;;;-5.35;100.00
72409;BME280;60402;48.082;11.628;2022-12-18T00:06:56;96295.84;;;-5.72;100.00
72409;BME280;60402;48.082;11.628;2022-12-18T00:09:24;96310.75;;;-5.73;100.00
72409;BME280;60402;48.082;11.628;2022-12-18T00:11:49;96241.19;;;-6.22;100.00
72409;BME280;60402;48.082;11.628;2022-12-18T00:14:15;96266.81;;;-6.04;100.00
72409;BME280;60402;48.082;11.628;2022-12-18T00:16:43;96310.72;;;-5.81;100.00
72409;BME280;60402;48.082;11.628;2022-12-18T00:19:16;96301.81;;;-5.87;100.00
72409;BME280;60402;48.082;11.628;2022-12-18T00:21:47;96312.50;;;-5.94;100.00
72409;BME280;60402;48.082;11.628;2022-12-18T00:24:15;96313.31;;;-5.94;100.00
72409;BME280;60402;48.082;11.628;2022-12-18T00:26:40;96288.09;;;-6.27;100.00
72409;BME280;60402;48.082;11.628;2022-12-18T00:29:11;96298.66;;;-6.20;100.00
72409;BME280;60402;48.082;11.628;2022-12-18T00:31:41;96263.38;;;-6.18;100.00
72409;BME280;60402;48.082;11.628;2022-12-18T00:34:10;96285.03;;;-6.25;100.00
72409;BME280;60402;48.082;11.628;2022-12-18T00:36:36;96297.28;;;-6.31;100.00
72409;BME280;60402;48.082;11.628;2022-12-18T00:39:03;96332.00;;;-6.13;100.00
72409;BME280;60402;48.082;11.628;2022-12-18T00:41:32;96291.91;;;-6.36;100.00
72409;BME280;60402;48.082;11.628;2022-12-18T00:44:16;96345.63;;;-6.08;100.00
72409;BME280;60402;48.082;11.628;2022-12-18T00:46:43;96325.81;;;-6.19;100.00
72409;BME280;60402;48.082;11.628;2022-12-18T00:49:13;96358.47;;;-5.95;100.00
72409;BME280;60402;48.082;11.628;2022-12-18T00:51:39;96380.22;;;-5.76;100.00
72409;BME280;60402;48.082;11.628;2022-12-18T00:54:05;96300.69;;;-6.26;100.00
72409;BME280;60402;48.082;11.628;2022-12-18T00:56:33;96357.19;;;-5.97;100.00
72409;BME280;60402;48.082;11.628;2022-12-18T00:59:02;96331.47;;;-6.24;100.00
72409;BME280;60402;48.082;11.628;2022-12-18T01:01:27;96361.69;;;-6.01;100.00
72409;BME280;60402;48.082;11.628;2022-12-18T01:03:53;96372.56;;;-5.87;100.00
72409;BME280;60402;48.082;11.628;2022-12-18T01:06:18;96339.91;;;-6.20;100.00
72409;BME280;60402;48.082;11.628;2022-12-18T01:08:44;96346.22;;;-6.20;100.00
72409;BME280;60402;48.082;11.628;2022-12-18T01:11:15;96399.28;;;-5.88;100.00
72409;BME280;60402;48.082;11.628;2022-12-18T01:13:42;96390.81;;;-6.00;100.00
72409;BME280;60402;48.082;11.628;2022-12-18T01:16:08;96409.63;;;-5.94;100.00
72409;BME280;60402;48.082;11.628;2022-12-18T01:18:34;96405.25;;;-5.95;100.00
72409;BME280;60402;48.082;11.628;2022-12-18T01:21:00;96407.69;;;-5.93;100.00
72409;BME280;60402;48.082;11.628;2022-12-18T01:23:28;96414.03;;;-5.93;100.00
72409;BME280;60402;48.082;11.628;2022-12-18T01:25:53;96358.31;;;-6.29;100.00
72409;BME280;60402;48.082;11.628;2022-12-18T01:28:19;96392.22;;;-6.11;100.00
72409;BME280;60402;48.082;11.628;2022-12-18T01:30:44;96437.34;;;-5.81;100.00
72409;BME280;60402;48.082;11.628;2022-12-18T01:33:09;96376.47;;;-6.20;100.00
72409;BME280;60402;48.082;11.628;2022-12-18T01:35:42;96419.59;;;-6.06;100.00
72409;BME280;60402;48.082;11.628;2022-12-18T01:38:08;96435.13;;;-5.71;100.00
72409;BME280;60402;48.082;11.628;2022-12-18T01:40:33;96423.63;;;-5.73;100.00
72409;BME280;60402;48.082;11.628;2022-12-18T01:42:58;96408.13;;;-6.00;100.00
72409;BME280;60402;48.082;11.628;2022-12-18T01:45:27;96441.91;;;-5.77;100.00
72409;BME280;60402;48.082;11.628;2022-12-18T01:47:57;96438.50;;;-5.43;100.00
72409;BME280;60402;48.082;11.628;2022-12-18T01:52:58;96449.31;;;-5.86;100.00
72409;BME280;60402;48.082;11.628;2022-12-18T01:55:27;96441.50;;;-5.61;100.00
72409;BME280;60402;48.082;11.628;2022-12-18T01:57:55;96367.66;;;-5.99;100.00
72409;BME280;60402;48.082;11.628;2022-12-18T02:00:22;96437.44;;;-5.64;100.00
72409;BME280;60402;48.082;11.628;2022-12-18T02:02:48;96448.81;;;-5.57;100.00
72409;BME280;60402;48.082;11.628;2022-12-18T02:05:22;96438.69;;;-5.70;100.00
72409;BME280;60402;48.082;11.628;2022-12-18T02:08:09;96442.81;;;-5.59;100.00
72409;BME280;60402;48.082;11.628;2022-12-18T02:19:09;96427.13;;;-5.50;100.00
72409;BME280;60402;48.082;11.628;2022-12-18T02:21:54;96383.06;;;-5.89;100.00
72409;BME280;60402;48.082;11.628;2022-12-18T02:24:36;96328.94;;;-6.43;100.00
72409;BME280;60402;48.082;11.628;2022-12-18T02:27:08;96392.09;;;-6.06;100.00
72409;BME280;60402;48.082;11.628;2022-12-18T02:29:41;96406.19;;;-5.99;100.00
72409;BME280;60402;48.082;11.628;2022-12-18T02:32:18;96387.69;;;-6.07;100.00
72409;BME280;60402;48.082;11.628;2022-12-18T02:34:48;96388.81;;;-6.08;100.00
72409;BME280;60402;48.082;11.628;2022-12-18T02:37:17;96337.00;;;-6.46;100.00
72409;BME280;60402;48.082;11.628;2022-12-18T02:39:46;96447.41;;;-5.77;100.00
72409;BME280;60402;48.082;11.628;2022-12-18T02:42:13;96337.44;;;-6.30;100.00
72409;BME280;60402;48.082;11.628;2022-12-18T02:44:43;96438.22;;;-5.72;100.00
72409;BME280;60402;48.082;11.628;2022-12-18T02:47:11;96411.41;;;-5.89;100.00
72409;BME280;60402;48.082;11.628;2022-12-18T02:50:02;96423.31;;;-5.71;100.00
72409;BME280;60402;48.082;11.628;2022-12-18T02:53:10;96331.78;;;-6.56;100.00
72409;BME280;60402;48.082;11.628;2022-12-18T02:56:07;96330.69;;;-6.47;100.00
72409;BME280;60402;48.082;11.628;2022-12-18T03:01:16;96329.81;;;-6.56;100.00
72409;BME280;60402;48.082;11.628;2022-12-18T03:03:50;96393.28;;;-6.21;100.00
72409;BME280;60402;48.082;11.628;2022-12-18T03:06:25;96376.16;;;-6.18;100.00
72409;BME280;60402;48.082;11.628;2022-12-18T03:09:01;96446.41;;;-5.81;100.00
72409;BME280;60402;48.082;11.628;2022-12-18T03:11:34;96325.44;;;-6.34;100.00
72409;BME280;60402;48.082;11.628;2022-12-18T03:14:21;96386.06;;;-6.08;100.00
72409;BME280;60402;48.082;11.628;2022-12-18T03:16:51;96377.81;;;-6.08;100.00
72409;BME280;60402;48.082;11.628;2022-12-18T03:19:21;96355.41;;;-6.24;100.00
72409;BME280;60402;48.082;11.628;2022-12-18T03:21:53;96359.16;;;-6.20;100.00
72409;BME280;60402;48.082;11.628;2022-12-18T03:24:20;96323.22;;;-6.24;100.00
72409;BME280;60402;48.082;11.628;2022-12-18T03:26:50;96300.81;;;-6.39;100.00
72409;BME280;60402;48.082;11.628;2022-12-18T03:29:37;96386.59;;;-5.98;100.00
72409;BME280;60402;48.082;11.628;2022-12-18T03:32:10;96371.91;;;-5.93;100.00
72409;BME280;60402;48.082;11.628;2022-12-18T03:34:39;96381.94;;;-5.97;100.00
72409;BME280;60402;48.082;11.628;2022-12-18T03:37:06;96373.19;;;-5.91;100.00
72409;BME280;60402;48.082;11.628;2022-12-18T03:39:33;96351.00;;;-6.34;100.00
72409;BME280;60402;48.082;11.628;2022-12-18T03:42:13;96379.63;;;-6.04;100.00
72409;BME280;60402;48.082;11.628;2022-12-18T03:47:55;96433.50;;;-5.72;100.00
72409;BME280;60402;48.082;11.628;2022-12-18T03:53:46;96404.78;;;-5.97;100.00
72409;BME280;60402;48.082;11.628;2022-12-18T03:55:50;96435.72;;;-5.43;100.00
72409;BME280;60402;48.082;11.628;2022-12-18T03:58:23;96327.72;;;-6.28;100.00
72409;BME280;60402;48.082;11.628;2022-12-18T04:00:56;96310.22;;;-6.32;100.00
72409;BME280;60402;48.082;11.628;2022-12-18T04:03:26;96426.25;;;-5.68;100.00
72409;BME280;60402;48.082;11.628;2022-12-18T04:05:54;96441.28;;;-5.74;100.00
72409;BME280;60402;48.082;11.628;2022-12-18T04:08:21;96375.50;;;-5.93;100.00
72409;BME280;60402;48.082;11.628;2022-12-18T04:10:47;96378.69;;;-5.91;100.00
72409;BME280;60402;48.082;11.628;2022-12-18T04:13:21;96400.91;;;-5.38;100.00
72409;BME280;60402;48.082;11.628;2022-12-18T04:15:47;96411.25;;;-5.53;100.00
72409;BME280;60402;48.082;11.628;2022-12-18T04:18:12;96430.84;;;-5.54;100.00
72409;BME280;60402;48.082;11.628;2022-12-18T04:20:37;96391.41;;;-5.72;100.00
72409;BME280;60402;48.082;11.628;2022-12-18T04:23:03;96440.34;;;-5.69;100.00
72409;BME280;60402;48.082;11.628;2022-12-18T04:25:28;96421.03;;;-5.78;100.00
72409;BME280;60402;48.082;11.628;2022-12-18T04:27:53;96442.63;;;-5.62;100.00
72409;BME280;60402;48.082;11.628;2022-12-18T04:30:19;96437.53;;;-5.38;100.00
72409;BME280;60402;48.082;11.628;2022-12-18T04:32:44;96438.50;;;-5.43;100.00
72409;BME280;60402;48.082;11.628;2022-12-18T04:35:09;96433.69;;;-5.68;100.00
72409;BME280;60402;48.082;11.628;2022-12-18T04:37:36;96406.56;;;-5.83;100.00
72409;BME280;60402;48.082;11.628;2022-12-18T04:40:01;96448.59;;;-5.69;100.00
72409;BME280;60402;48.082;11.628;2022-12-18T04:42:26;96420.88;;;-5.73;100.00
72409;BME280;60402;48.082;11.628;2022-12-18T04:44:52;96412.44;;;-5.76;100.00
72409;BME280;60402;48.082;11.628;2022-12-18T04:47:17;96397.00;;;-5.86;100.00
72409;BME280;60402;48.082;11.628;2022-12-18T04:49:42;96394.56;;;-5.96;100.00
72409;BME280;60402;48.082;11.628;2022-12-18T04:52:07;96404.13;;;-5.85;100.00
72409;BME280;60402;48.082;11.628;2022-12-18T04:54:33;96444.84;;;-5.73;100.00
72409;BME280;60402;48.082;11.628;2022-12-18T04:56:58;96434.72;;;-5.95;100.00
72409;BME280;60402;48.082;11.628;2022-12-18T04:59:23;96444.25;;;-6.01;100.00
72409;BME280;60402;48.082;11.628;2022-12-18T05:01:49;96467.13;;;-5.92;100.00
72409;BME280;60402;48.082;11.628;2022-12-18T05:04:14;96457.91;;;-5.79;100.00
72409;BME280;60402;48.082;11.628;2022-12-18T05:06:39;96443.00;;;-6.18;100.00
72409;BME280;60402;48.082;11.628;2022-12-18T05:09:05;96456.19;;;-6.06;100.00
72409;BME280;60402;48.082;11.628;2022-12-18T05:11:30;96459.75;;;-6.05;100.00
72409;BME280;60402;48.082;11.628;2022-12-18T05:13:55;96447.25;;;-6.11;100.00
72409;BME280;60402;48.082;11.628;2022-12-18T05:16:21;96487.00;;;-5.95;100.00
72409;BME280;60402;48.082;11.628;2022-12-18T05:18:46;96468.69;;;-6.00;100.00
72409;BME280;60402;48.082;11.628;2022-12-18T05:21:11;96470.09;;;-6.02;100.00
72409;BME280;60402;48.082;11.628;2022-12-18T05:23:36;96461.38;;;-6.04;100.00
72409;BME280;60402;48.082;11.628;2022-12-18T05:26:04;96473.88;;;-5.89;100.00
72409;BME280;60402;48.082;11.628;2022-12-18T05:28:32;96471.88;;;-5.75;100.00
72409;BME280;60402;48.082;11.628;2022-12-18T05:30:59;96464.13;;;-5.73;100.00
72409;BME280;60402;48.082;11.628;2022-12-18T05:33:27;96463.00;;;-5.72;100.00
72409;BME280;60402;48.082;11.628;2022-12-18T05:35:55;96477.06;;;-5.74;100.00
72409;BME280;60402;48.082;11.628;2022-12-18T05:38:22;96465.97;;;-5.91;100.00
72409;BME280;60402;48.082;11.628;2022-12-18T05:40:49;96470.31;;;-5.90;100.00
72409;BME280;60402;48.082;11.628;2022-12-18T05:43:15;96479.91;;;-5.87;100.00
72409;BME280;60402;48.082;11.628;2022-12-18T05:45:40;96489.97;;;-5.83;100.00
72409;BME280;60402;48.082;11.628;2022-12-18T05:48:07;96474.56;;;-5.93;100.00
72409;BME280;60402;48.082;11.628;2022-12-18T05:50:41;96461.44;;;-5.87;100.00
72409;BME280;60402;48.082;11.628;2022-12-18T05:53:07;96490.19;;;-5.71;100.00
72409;BME280;60402;48.082;11.628;2022-12-18T05:55:36;96502.16;;;-5.75;100.00
72409;BME280;60402;48.082;11.628;2022-12-18T05:58:03;96464.22;;;-5.87;100.00
72409;BME280;60402;48.082;11.628;2022-12-18T06:00:31;96498.03;;;-5.86;100.00
72409;BME280;60402;48.082;11.628;2022-12-18T06:02:57;96484.59;;;-5.88;100.00
72409;BME280;60402;48.082;11.628;2022-12-18T06:05:22;96488.47;;;-5.89;100.00
72409;BME280;60402;48.082;11.628;2022-12-18T06:07:48;96492.22;;;-5.85;100.00
72409;BME280;60402;48.082;11.628;2022-12-18T06:10:13;96487.50;;;-5.84;100.00
72409;BME280;60402;48.082;11.628;2022-12-18T06:12:38;96503.03;;;-5.88;100.00
72409;BME280;60402;48.082;11.628;2022-12-18T06:15:04;96496.69;;;-5.98;100.00
72409;BME280;60402;48.082;11.628;2022-12-18T06:17:31;96492.09;;;-5.80;100.00
72409;BME280;60402;48.082;11.628;2022-12-18T06:19:57;96505.34;;;-5.82;100.00
72409;BME280;60402;48.082;11.628;2022-12-18T06:22:23;96509.50;;;-5.93;100.00
72409;BME280;60402;48.082;11.628;2022-12-18T06:24:48;96484.94;;;-6.12;100.00
72409;BME280;60402;48.082;11.628;2022-12-18T06:27:14;96484.84;;;-6.07;100.00
72409;BME280;60402;48.082;11.628;2022-12-18T06:29:39;96483.38;;;-6.04;100.00
72409;BME280;60402;48.082;11.628;2022-12-18T06:32:05;96508.06;;;-5.91;100.00
72409;BME280;60402;48.082;11.628;2022-12-18T06:34:31;96494.44;;;-6.18;100.00
72409;BME280;60402;48.082;11.628;2022-12-18T06:36:57;96508.72;;;-6.16;100.00
72409;BME280;60402;48.082;11.628;2022-12-18T06:39:22;96487.88;;;-6.31;100.00
72409;BME280;60402;48.082;11.628;2022-12-18T06:41:47;96509.88;;;-6.08;100.00
72409;BME280;60402;48.082;11.628;2022-12-18T06:44:13;96531.16;;;-6.00;100.00
72409;BME280;60402;48.082;11.628;2022-12-18T06:46:38;96507.88;;;-6.17;100.00
72409;BME280;60402;48.082;11.628;2022-12-18T06:49:03;96515.41;;;-6.08;100.00
72409;BME280;60402;48.082;11.628;2022-12-18T06:51:29;96508.78;;;-6.30;100.00
72409;BME280;60402;48.082;11.628;2022-12-18T06:53:54;96526.78;;;-6.24;100.00
72409;BME280;60402;48.082;11.628;2022-12-18T06:56:20;96534.09;;;-6.19;100.00
72409;BME280;60402;48.082;11.628;2022-12-18T06:58:45;96527.22;;;-6.30;100.00
72409;BME280;60402;48.082;11.628;2022-12-18T07:01:11;96521.50;;;-6.34;100.00
72409;BME280;60402;48.082;11.628;2022-12-18T07:03:38;96530.06;;;-6.35;100.00
72409;BME280;60402;48.082;11.628;2022-12-18T07:06:04;96532.06;;;-6.27;100.00
72409;BME280;60402;48.082;11.628;2022-12-18T07:08:30;96549.09;;;-6.25;100.00
72409;BME280;60402;48.082;11.628;2022-12-18T07:10:56;96549.59;;;-6.23;100.00
72409;BME280;60402;48.082;11.628;2022-12-18T07:13:21;96531.88;;;-6.31;100.00
72409;BME280;60402;48.082;11.628;2022-12-18T07:15:47;96523.38;;;-6.43;100.00
72409;BME280;60402;48.082;11.628;2022-12-18T07:18:12;96540.84;;;-6.25;100.00
72409;BME280;60402;48.082;11.628;2022-12-18T07:20:37;96551.69;;;-6.06;100.00
72409;BME280;60402;48.082;11.628;2022-12-18T07:23:03;96533.22;;;-6.28;100.00
72409;BME280;60402;48.082;11.628;2022-12-18T07:25:30;96565.84;;;-6.13;100.00
72409;BME280;60402;48.082;11.628;2022-12-18T07:27:55;96557.47;;;-6.30;100.00
72409;BME280;60402;48.082;11.628;2022-12-18T07:30:20;96570.47;;;-6.22;100.00
72409;BME280;60402;48.082;11.628;2022-12-18T07:32:46;96569.78;;;-6.28;100.00
72409;BME280;60402;48.082;11.628;2022-12-18T07:35:11;96566.34;;;-6.33;100.00
72409;BME280;60402;48.082;11.628;2022-12-18T07:37:36;96563.13;;;-6.27;100.00
72409;BME280;60402;48.082;11.628;2022-12-18T07:40:02;96551.66;;;-6.29;100.00
72409;BME280;60402;48.082;11.628;2022-12-18T07:42:27;96552.78;;;-6.30;100.00
72409;BME280;60402;48.082;11.628;2022-12-18T07:44:55;96556.84;;;-6.27;100.00
72409;BME280;60402;48.082;11.628;2022-12-18T07:47:21;96534.72;;;-6.58;100.00
72409;BME280;60402;48.082;11.628;2022-12-18T07:49:46;96532.97;;;-6.54;100.00
72409;BME280;60402;48.082;11.628;2022-12-18T07:52:12;96526.97;;;-6.56;100.00
72409;BME280;60402;48.082;11.628;2022-12-18T07:54:37;96552.84;;;-6.57;100.00
72409;BME280;60402;48.082;11.628;2022-12-18T07:57:03;96546.31;;;-6.61;100.00
72409;BME280;60402;48.082;11.628;2022-12-18T07:59:28;96555.06;;;-6.59;100.00
72409;BME280;60402;48.082;11.628;2022-12-18T08:01:54;96565.13;;;-6.41;100.00
72409;BME280;60402;48.082;11.628;2022-12-18T08:04:19;96557.41;;;-6.53;100.00
72409;BME280;60402;48.082;11.628;2022-12-18T08:06:44;96566.34;;;-6.47;100.00
72409;BME280;60402;48.082;11.628;2022-12-18T08:09:10;96559.53;;;-6.50;100.00
72409;BME280;60402;48.082;11.628;2022-12-18T08:11:35;96567.06;;;-6.41;100.00
72409;BME280;60402;48.082;11.628;2022-12-18T08:14:01;96567.16;;;-6.47;100.00
72409;BME280;60402;48.082;11.628;2022-12-18T08:16:26;96594.16;;;-6.35;100.00
72409;BME280;60402;48.082;11.628;2022-12-18T08:18:52;96594.31;;;-6.31;100.00
72409;BME280;60402;48.082;11.628;2022-12-18T08:21:21;96554.66;;;-6.53;100.00
72409;BME280;60402;48.082;11.628;2022-12-18T08:23:48;96598.63;;;-6.39;100.00
72409;BME280;60402;48.082;11.628;2022-12-18T08:26:14;96562.81;;;-6.11;100.00
72409;BME280;60402;48.082;11.628;2022-12-18T08:28:40;96595.44;;;-6.19;100.00
72409;BME280;60402;48.082;11.628;2022-12-18T08:31:06;96601.28;;;-6.34;100.00
72409;BME280;60402;48.082;11.628;2022-12-18T08:33:32;96605.94;;;-6.21;100.00
72409;BME280;60402;48.082;11.628;2022-12-18T08:35:58;96580.97;;;-6.24;100.00
72409;BME280;60402;48.082;11.628;2022-12-18T08:38:24;96579.47;;;-6.30;100.00
72409;BME280;60402;48.082;11.628;2022-12-18T08:40:58;96575.41;;;-6.33;100.00
72409;BME280;60402;48.082;11.628;2022-12-18T08:43:23;96585.56;;;-6.20;100.00
72409;BME280;60402;48.082;11.628;2022-12-18T08:46:07;96591.00;;;-6.06;100.00
72409;BME280;60402;48.082;11.628;2022-12-18T08:48:32;96590.50;;;-6.08;100.00
72409;BME280;60402;48.082;11.628;2022-12-18T08:50:59;96601.63;;;-6.13;100.00
72409;BME280;60402;48.082;11.628;2022-12-18T08:53:25;96589.84;;;-6.27;100.00
72409;BME280;60402;48.082;11.628;2022-12-18T08:55:51;96604.75;;;-5.61;100.00
72409;BME280;60402;48.082;11.628;2022-12-18T08:58:16;96604.94;;;-6.02;100.00
72409;BME280;60402;48.082;11.628;2022-12-18T09:00:41;96568.16;;;-6.29;100.00
72409;BME280;60402;48.082;11.628;2022-12-18T09:03:18;96565.44;;;-6.43;100.00
72409;BME280;60402;48.082;11.628;2022-12-18T09:05:46;96610.91;;;-6.23;100.00
72409;BME280;60402;48.082;11.628;2022-12-18T09:08:11;96585.25;;;-6.32;100.00
72409;BME280;60402;48.082;11.628;2022-12-18T09:10:44;96594.41;;;-6.23;100.00
72409;BME280;60402;48.082;11.628;2022-12-18T09:13:11;96610.91;;;-6.23;100.00
72409;BME280;60402;48.082;11.628;2022-12-18T09:15:41;96526.50;;;-6.72;100.00
72409;BME280;60402;48.082;11.628;2022-12-18T09:18:07;96568.38;;;-6.39;100.00
72409;BME280;60402;48.082;11.628;2022-12-18T09:20:34;96583.06;;;-6.44;100.00
72409;BME280;60402;48.082;11.628;2022-12-18T09:22:59;96575.66;;;-6.57;100.00
72409;BME280;60402;48.082;11.628;2022-12-18T09:25:24;96602.19;;;-6.38;100.00
72409;BME280;60402;48.082;11.628;2022-12-18T09:27:49;96562.72;;;-6.70;100.00
72409;BME280;60402;48.082;11.628;2022-12-18T09:30:15;96607.94;;;-6.49;100.00
72409;BME280;60402;48.082;11.628;2022-12-18T09:32:40;96554.00;;;-6.36;100.00
72409;BME280;60402;48.082;11.628;2022-12-18T09:35:06;96570.69;;;-5.96;100.00
72409;BME280;60402;48.082;11.628;2022-12-18T09:37:31;96589.38;;;-5.84;100.00
72409;BME280;60402;48.082;11.628;2022-12-18T09:39:56;96597.28;;;-5.92;100.00
72409;BME280;60402;48.082;11.628;2022-12-18T09:42:22;96609.06;;;-5.91;100.00
72409;BME280;60402;48.082;11.628;2022-12-18T09:44:53;96614.34;;;-6.03;100.00
72409;BME280;60402;48.082;11.628;2022-12-18T09:47:23;96617.59;;;-6.01;100.00
72409;BME280;60402;48.082;11.628;2022-12-18T09:50:03;96609.97;;;-6.04;100.00
72409;BME280;60402;48.082;11.628;2022-12-18T09:52:35;96612.91;;;-6.01;100.00
72409;BME280;60402;48.082;11.628;2022-12-18T09:55:17;96601.13;;;-5.70;99.95
72409;BME280;60402;48.082;11.628;2022-12-18T09:57:49;96585.06;;;-5.99;99.89
72409;BME280;60402;48.082;11.628;2022-12-18T10:00:19;96602.16;;;-6.11;100.00
72409;BME280;60402;48.082;11.628;2022-12-18T10:02:46;96540.84;;;-6.75;100.00
72409;BME280;60402;48.082;11.628;2022-12-18T10:05:15;96602.72;;;-5.78;100.00
72409;BME280;60402;48.082;11.628;2022-12-18T10:08:02;96598.03;;;-5.55;99.34
72409;BME280;60402;48.082;11.628;2022-12-18T10:10:45;96596.31;;;-6.09;100.00
72409;BME280;60402;48.082;11.628;2022-12-18T10:21:48;96576.31;;;-6.37;100.00
72409;BME280;60402;48.082;11.628;2022-12-18T10:24:28;96581.91;;;-6.29;100.00
72409;BME280;60402;48.082;11.628;2022-12-18T10:27:06;96547.28;;;-6.30;100.00
72409;BME280;60402;48.082;11.628;2022-12-18T10:29:34;96572.41;;;-6.23;100.00
72409;BME280;60402;48.082;11.628;2022-12-18T10:32:00;96543.91;;;-6.04;100.00
72409;BME280;60402;48.082;11.628;2022-12-18T10:34:25;96544.84;;;-5.55;98.78
72409;BME280;60402;48.082;11.628;2022-12-18T10:36:51;96554.56;;;-5.35;98.31
72409;BME280;60402;48.082;11.628;2022-12-18T10:39:24;96547.84;;;-5.43;99.04
72409;BME280;60402;48.082;11.628;2022-12-18T10:41:51;96569.47;;;-5.59;99.83
72409;BME280;60402;48.082;11.628;2022-12-18T10:44:23;96563.41;;;-5.70;99.60
72409;BME280;60402;48.082;11.628;2022-12-18T10:46:54;96548.13;;;-5.76;100.00
72409;BME280;60402;48.082;11.628;2022-12-18T10:49:27;96539.13;;;-5.90;99.69
72409;BME280;60402;48.082;11.628;2022-12-18T10:52:14;96557.66;;;-5.82;99.96
72409;BME280;60402;48.082;11.628;2022-12-18T10:54:46;96558.66;;;-5.78;100.00
72409;BME280;60402;48.082;11.628;2022-12-18T10:57:38;96548.28;;;-5.81;100.00
72409;BME280;60402;48.082;11.628;2022-12-18T11:00:26;96550.34;;;-6.09;100.00
72409;BME280;60402;48.082;11.628;2022-12-18T11:02:53;96560.16;;;-6.17;100.00
72409;BME280;60402;48.082;11.628;2022-12-18T11:05:34;96570.44;;;-6.08;100.00
72409;BME280;60402;48.082;11.628;2022-12-18T11:08:02;96565.41;;;-5.84;100.00
72409;BME280;60402;48.082;11.628;2022-12-18T11:10:32;96559.75;;;-5.56;98.96
72409;BME280;60402;48.082;11.628;2022-12-18T11:13:18;96558.97;;;-5.79;99.72
72409;BME280;60402;48.082;11.628;2022-12-18T11:15:45;96557.59;;;-5.37;97.48
72409;BME280;60402;48.082;11.628;2022-12-18T11:20:57;96570.03;;;-5.71;98.24
72409;BME280;60402;48.082;11.628;2022-12-18T11:23:25;96572.22;;;-5.81;100.00
72409;BME280;60402;48.082;11.628;2022-12-18T11:25:59;96525.97;;;-5.71;98.54
72409;BME280;60402;48.082;11.628;2022-12-18T11:33:42;96551.84;;;-5.27;98.16
72409;BME280;60402;48.082;11.628;2022-12-18T11:36:10;96554.09;;;-5.29;95.29
72409;BME280;60402;48.082;11.628;2022-12-18T11:38:38;96579.25;;;-5.22;96.57
72409;BME280;60402;48.082;11.628;2022-12-18T11:41:26;96571.84;;;-5.12;95.30
72409;BME280;60402;48.082;11.628;2022-12-18T11:44:24;96548.84;;;-5.08;95.28
72409;BME280;60402;48.082;11.628;2022-12-18T11:46:55;96532.84;;;-5.28;95.46
72409;BME280;60402;48.082;11.628;2022-12-18T11:49:34;96523.53;;;-5.50;97.21
72409;BME280;60402;48.082;11.628;2022-12-18T11:54:34;96553.13;;;-5.24;95.48
72409;BME280;60402;48.082;11.628;2022-12-18T11:57:37;96545.78;;;-5.37;96.59
72409;BME280;60402;48.082;11.628;2022-12-18T12:00:14;96551.19;;;-5.24;97.14
72409;BME280;60402;48.082;11.628;2022-12-18T12:03:10;96548.34;;;-5.10;95.89
72409;BME280;60402;48.082;11.628;2022-12-18T12:19:25;96544.16;;;-5.38;97.79
72409;BME280;60402;48.082;11.628;2022-12-18T12:33:31;96514.03;;;-5.88;100.00
72409;BME280;60402;48.082;11.628;2022-12-18T12:39:01;96483.25;;;-5.68;99.06
72409;BME280;60402;48.082;11.628;2022-12-18T12:41:31;96504.16;;;-5.27;96.97
72409;BME280;60402;48.082;11.628;2022-12-18T12:44:43;96521.56;;;-5.18;97.00
72409;BME280;60402;48.082;11.628;2022-12-18T12:47:23;96519.88;;;-5.28;98.02
72409;BME280;60402;48.082;11.628;2022-12-18T12:49:50;96522.22;;;-5.21;97.64
72409;BME280;60402;48.082;11.628;2022-12-18T12:52:34;96480.97;;;-5.35;96.89
72409;BME280;60402;48.082;11.628;2022-12-18T12:55:02;96524.78;;;-5.56;99.15
72409;BME280;60402;48.082;11.628;2022-12-18T12:57:38;96506.91;;;-5.36;97.70
72409;BME280;60402;48.082;11.628;2022-12-18T13:00:18;96514.91;;;-5.26;97.21
72409;BME280;60402;48.082;11.628;2022-12-18T13:05:49;96538.69;;;-5.61;98.99
72409;BME280;60402;48.082;11.628;2022-12-18T13:08:29;96478.31;;;-5.80;98.96
72409;BME280;60402;48.082;11.628;2022-12-18T13:10:57;96496.78;;;-5.49;99.50
72409;BME280;60402;48.082;11.628;2022-12-18T13:13:54;96532.47;;;-5.44;99.51
72409;BME280;60402;48.082;11.628;2022-12-18T13:16:22;96536.09;;;-5.57;100.00
72409;BME280;60402;48.082;11.628;2022-12-18T13:18:53;96531.22;;;-5.60;100.00
72409;BME280;60402;48.082;11.628;2022-12-18T13:21:27;96536.59;;;-5.55;100.00
72409;BME280;60402;48.082;11.628;2022-12-18T13:23:53;96526.72;;;-5.56;100.00
72409;BME280;60402;48.082;11.628;2022-12-18T13:34:16;96536.56;;;-5.33;98.77
72409;BME280;60402;48.082;11.628;2022-12-18T13:36:41;96500.78;;;-5.24;98.01
72409;BME280;60402;48.082;11.628;2022-12-18T13:41:49;96503.72;;;-5.92;99.41
72409;BME280;60402;48.082;11.628;2022-12-18T13:46:51;96523.97;;;-5.56;99.84
72409;BME280;60402;48.082;11.628;2022-12-18T13:49:26;96525.19;;;-5.40;99.77
72409;BME280;60402;48.082;11.628;2022-12-18T13:51:56;96503.16;;;-5.40;99.14
72409;BME280;60402;48.082;11.628;2022-12-18T13:54:39;96528.88;;;-5.14;96.80
72409;BME280;60402;48.082;11.628;2022-12-18T13:57:24;96543.97;;;-5.11;97.42
72409;BME280;60402;48.082;11.628;2022-12-18T13:59:51;96540.63;;;-5.30;97.72
72409;BME280;60402;48.082;11.628;2022-12-18T14:02:21;96515.09;;;-5.53;99.13
72409;BME280;60402;48.082;11.628;2022-12-18T14:04:48;96516.75;;;-5.44;100.00
72409;BME280;60402;48.082;11.628;2022-12-18T14:07:16;96513.38;;;-5.32;99.21
72409;BME280;60402;48.082;11.628;2022-12-18T14:09:44;96511.16;;;-5.83;100.00
72409;BME280;60402;48.082;11.628;2022-12-18T14:12:16;96540.47;;;-6.10;100.00
72409;BME280;60402;48.082;11.628;2022-12-18T14:15:01;96491.50;;;-6.44;100.00
72409;BME280;60402;48.082;11.628;2022-12-18T14:17:26;96536.53;;;-5.95;100.00